sensor_id;sensor_type;location;lat;lon;timestamp;temperature;humidity
52285;DHT22;38238;53.304;6.606;2022-10-16T00:00:57;12.60;99.90
52285;DHT22;38238;53.304;6.606;2022-10-16T00:03:23;12.60;99.90
52285;DHT22;38238;53.304;6.606;2022-10-16T00:05:49;12.70;99.90
52285;DHT22;38238;53.304;6.606;2022-10-16T00:08:14;12.60;99.90
52285;DHT22;38238;53.304;6.606;2022-10-16T00:10:40;12.70;99.90
52285;DHT22;38238;53.304;6.606;2022-10-16T00:13:06;12.70;99.90
52285;DHT22;38238;53.304;6.606;2022-10-16T00:15:36;12.70;99.90
52285;DHT22;38238;53.304;6.606;2022-10-16T00:18:04;12.70;99.90
52285;DHT22;38238;53.304;6.606;2022-10-16T00:20:30;12.70;99.90
52285;DHT22;38238;53.304;6.606;2022-10-16T00:22:57;12.70;99.90
52285;DHT22;38238;53.304;6.606;2022-10-16T00:25:23;12.70;99.90
52285;DHT22;38238;53.304;6.606;2022-10-16T00:27:48;12.60;99.90
52285;DHT22;38238;53.304;6.606;2022-10-16T00:30:14;12.80;99.90
52285;DHT22;38238;53.304;6.606;2022-10-16T00:32:40;12.60;99.90
52285;DHT22;38238;53.304;6.606;2022-10-16T00:35:06;12.60;99.90
52285;DHT22;38238;53.304;6.606;2022-10-16T00:37:31;12.60;99.90
52285;DHT22;38238;53.304;6.606;2022-10-16T00:39:57;12.60;99.90
52285;DHT22;38238;53.304;6.606;2022-10-16T00:42:23;12.60;99.90
52285;DHT22;38238;53.304;6.606;2022-10-16T00:44:51;12.60;99.90
52285;DHT22;38238;53.304;6.606;2022-10-16T00:47:34;12.70;99.90
52285;DHT22;38238;53.304;6.606;2022-10-16T00:50:24;12.60;99.90
52285;DHT22;38238;53.304;6.606;2022-10-16T00:52:52;12.60;99.90
52285;DHT22;38238;53.304;6.606;2022-10-16T00:55:19;12.60;99.90
52285;DHT22;38238;53.304;6.606;2022-10-16T00:57:46;12.60;99.90
52285;DHT22;38238;53.304;6.606;2022-10-16T01:00:17;12.60;99.90
52285;DHT22;38238;53.304;6.606;2022-10-16T01:02:43;12.60;99.90
52285;DHT22;38238;53.304;6.606;2022-10-16T01:05:09;12.60;99.90
52285;DHT22;38238;53.304;6.606;2022-10-16T01:10:27;12.60;99.90
52285;DHT22;38238;53.304;6.606;2022-10-16T01:13:21;12.60;99.90
52285;DHT22;38238;53.304;6.606;2022-10-16T01:16:09;12.70;99.90
52285;DHT22;38238;53.304;6.606;2022-10-16T01:18:44;12.70;99.90
52285;DHT22;38238;53.304;6.606;2022-10-16T01:21:27;12.70;99.90
52285;DHT22;38238;53.304;6.606;2022-10-16T01:35:05;12.70;99.90
52285;DHT22;38238;53.304;6.606;2022-10-16T01:40:16;12.80;99.90
52285;DHT22;38238;53.304;6.606;2022-10-16T01:42:51;12.80;99.90
52285;DHT22;38238;53.304;6.606;2022-10-16T01:45:19;12.80;99.90
52285;DHT22;38238;53.304;6.606;2022-10-16T01:47:46;12.80;99.90
52285;DHT22;38238;53.304;6.606;2022-10-16T01:50:14;12.80;99.90
52285;DHT22;38238;53.304;6.606;2022-10-16T01:52:44;12.80;99.90
52285;DHT22;38238;53.304;6.606;2022-10-16T01:55:14;12.90;99.90
52285;DHT22;38238;53.304;6.606;2022-10-16T01:57:42;12.80;99.90
52285;DHT22;38238;53.304;6.606;2022-10-16T02:00:12;12.80;99.90
52285;DHT22;38238;53.304;6.606;2022-10-16T02:02:45;12.90;99.90
52285;DHT22;38238;53.304;6.606;2022-10-16T02:07:45;12.90;99.90
52285;DHT22;38238;53.304;6.606;2022-10-16T02:10:11;12.90;99.90
52285;DHT22;38238;53.304;6.606;2022-10-16T02:12:40;12.90;99.90
52285;DHT22;38238;53.304;6.606;2022-10-16T02:15:08;12.90;99.90
52285;DHT22;38238;53.304;6.606;2022-10-16T02:17:35;12.90;99.90
52285;DHT22;38238;53.304;6.606;2022-10-16T02:20:01;12.90;99.90
52285;DHT22;38238;53.304;6.606;2022-10-16T02:22:42;12.90;99.90
52285;DHT22;38238;53.304;6.606;2022-10-16T02:25:22;12.90;99.90
52285;DHT22;38238;53.304;6.606;2022-10-16T02:28:02;12.90;99.90
52285;DHT22;38238;53.304;6.606;2022-10-16T02:30:51;12.90;99.90
52285;DHT22;38238;53.304;6.606;2022-10-16T02:33:19;12.90;99.90
52285;DHT22;38238;53.304;6.606;2022-10-16T02:35:46;12.90;99.90
52285;DHT22;38238;53.304;6.606;2022-10-16T02:38:14;12.90;99.90
52285;DHT22;38238;53.304;6.606;2022-10-16T02:40:40;12.90;99.90
52285;DHT22;38238;53.304;6.606;2022-10-16T02:43:06;12.90;99.90
52285;DHT22;38238;53.304;6.606;2022-10-16T02:45:32;12.90;99.90
52285;DHT22;38238;53.304;6.606;2022-10-16T02:47:58;13.00;99.90
52285;DHT22;38238;53.304;6.606;2022-10-16T02:50:24;13.00;99.90
52285;DHT22;38238;53.304;6.606;2022-10-16T02:52:50;13.00;99.90
52285;DHT22;38238;53.304;6.606;2022-10-16T02:55:16;13.00;99.90
52285;DHT22;38238;53.304;6.606;2022-10-16T02:57:42;13.00;99.90
52285;DHT22;38238;53.304;6.606;2022-10-16T03:00:09;13.00;99.90
52285;DHT22;38238;53.304;6.606;2022-10-16T03:02:36;13.10;99.90
52285;DHT22;38238;53.304;6.606;2022-10-16T03:05:02;13.00;99.90
52285;DHT22;38238;53.304;6.606;2022-10-16T03:07:28;12.90;99.90
52285;DHT22;38238;53.304;6.606;2022-10-16T03:09:54;12.90;99.90
52285;DHT22;38238;53.304;6.606;2022-10-16T03:12:21;12.90;99.90
52285;DHT22;38238;53.304;6.606;2022-10-16T03:14:47;12.80;99.90
52285;DHT22;38238;53.304;6.606;2022-10-16T03:17:13;13.00;99.90
52285;DHT22;38238;53.304;6.606;2022-10-16T03:19:39;12.80;99.90
52285;DHT22;38238;53.304;6.606;2022-10-16T03:22:04;12.80;99.90
52285;DHT22;38238;53.304;6.606;2022-10-16T03:24:30;12.90;99.90
52285;DHT22;38238;53.304;6.606;2022-10-16T03:26:56;12.80;99.90
52285;DHT22;38238;53.304;6.606;2022-10-16T03:29:22;12.80;99.90
52285;DHT22;38238;53.304;6.606;2022-10-16T03:31:48;12.70;99.90
52285;DHT22;38238;53.304;6.606;2022-10-16T03:34:15;12.80;99.90
52285;DHT22;38238;53.304;6.606;2022-10-16T03:36:40;12.80;99.90
52285;DHT22;38238;53.304;6.606;2022-10-16T03:39:06;12.80;99.90
52285;DHT22;38238;53.304;6.606;2022-10-16T03:41:32;12.80;99.90
52285;DHT22;38238;53.304;6.606;2022-10-16T03:43:57;12.80;99.90
52285;DHT22;38238;53.304;6.606;2022-10-16T03:46:23;12.80;99.90
52285;DHT22;38238;53.304;6.606;2022-10-16T03:48:49;12.80;99.90
52285;DHT22;38238;53.304;6.606;2022-10-16T03:51:15;12.80;99.90
52285;DHT22;38238;53.304;6.606;2022-10-16T03:53:41;12.80;99.90
52285;DHT22;38238;53.304;6.606;2022-10-16T03:56:06;12.80;99.90
52285;DHT22;38238;53.304;6.606;2022-10-16T03:58:32;12.80;99.90
52285;DHT22;38238;53.304;6.606;2022-10-16T04:00:58;12.80;99.90
52285;DHT22;38238;53.304;6.606;2022-10-16T04:03:23;12.80;99.90
52285;DHT22;38238;53.304;6.606;2022-10-16T04:05:49;12.80;99.90
52285;DHT22;38238;53.304;6.606;2022-10-16T04:08:15;12.80;99.90
52285;DHT22;38238;53.304;6.606;2022-10-16T04:10:42;12.80;99.90
52285;DHT22;38238;53.304;6.606;2022-10-16T04:13:09;12.80;99.90
52285;DHT22;38238;53.304;6.606;2022-10-16T04:15:34;12.80;99.90
52285;DHT22;38238;53.304;6.606;2022-10-16T04:18:00;12.70;99.90
52285;DHT22;38238;53.304;6.606;2022-10-16T04:20:26;12.70;99.90
52285;DHT22;38238;53.304;6.606;2022-10-16T04:22:52;12.70;99.90
52285;DHT22;38238;53.304;6.606;2022-10-16T04:25:17;12.60;99.90
52285;DHT22;38238;53.304;6.606;2022-10-16T04:27:43;12.60;99.90
52285;DHT22;38238;53.304;6.606;2022-10-16T04:30:09;12.60;99.90
52285;DHT22;38238;53.304;6.606;2022-10-16T04:32:35;12.60;99.90
52285;DHT22;38238;53.304;6.606;2022-10-16T04:35:00;12.60;99.90
52285;DHT22;38238;53.304;6.606;2022-10-16T04:37:27;12.60;99.90
52285;DHT22;38238;53.304;6.606;2022-10-16T04:39:53;12.60;99.90
52285;DHT22;38238;53.304;6.606;2022-10-16T04:42:19;12.60;99.90
52285;DHT22;38238;53.304;6.606;2022-10-16T04:44:45;11.70;99.90
52285;DHT22;38238;53.304;6.606;2022-10-16T04:47:11;12.60;99.90
52285;DHT22;38238;53.304;6.606;2022-10-16T04:49:36;12.60;99.90
52285;DHT22;38238;53.304;6.606;2022-10-16T04:52:02;12.60;99.90
52285;DHT22;38238;53.304;6.606;2022-10-16T04:54:28;12.70;99.90
52285;DHT22;38238;53.304;6.606;2022-10-16T04:56:54;12.70;99.90
52285;DHT22;38238;53.304;6.606;2022-10-16T04:59:20;12.70;99.90
52285;DHT22;38238;53.304;6.606;2022-10-16T05:01:45;12.70;99.90
52285;DHT22;38238;53.304;6.606;2022-10-16T05:04:11;12.70;99.90
52285;DHT22;38238;53.304;6.606;2022-10-16T05:06:37;12.70;99.90
52285;DHT22;38238;53.304;6.606;2022-10-16T05:09:07;12.70;99.90
52285;DHT22;38238;53.304;6.606;2022-10-16T05:11:34;12.80;99.90
52285;DHT22;38238;53.304;6.606;2022-10-16T05:14:02;12.80;99.90
52285;DHT22;38238;53.304;6.606;2022-10-16T05:16:29;12.70;99.90
52285;DHT22;38238;53.304;6.606;2022-10-16T05:18:56;12.80;99.90
52285;DHT22;38238;53.304;6.606;2022-10-16T05:21:22;12.80;99.90
52285;DHT22;38238;53.304;6.606;2022-10-16T05:23:47;12.90;99.90
52285;DHT22;38238;53.304;6.606;2022-10-16T05:26:13;13.00;99.90
52285;DHT22;38238;53.304;6.606;2022-10-16T05:28:39;12.80;99.90
52285;DHT22;38238;53.304;6.606;2022-10-16T05:31:06;12.80;99.90
52285;DHT22;38238;53.304;6.606;2022-10-16T05:33:32;12.70;99.90
52285;DHT22;38238;53.304;6.606;2022-10-16T05:36:02;12.80;99.90
52285;DHT22;38238;53.304;6.606;2022-10-16T05:38:28;12.70;99.90
52285;DHT22;38238;53.304;6.606;2022-10-16T05:40:54;12.70;99.90
52285;DHT22;38238;53.304;6.606;2022-10-16T05:43:20;12.90;99.90
52285;DHT22;38238;53.304;6.606;2022-10-16T05:45:54;12.70;99.90
52285;DHT22;38238;53.304;6.606;2022-10-16T05:48:20;12.70;99.90
52285;DHT22;38238;53.304;6.606;2022-10-16T05:50:45;12.70;99.90
52285;DHT22;38238;53.304;6.606;2022-10-16T05:53:11;12.70;99.90
52285;DHT22;38238;53.304;6.606;2022-10-16T05:55:37;12.70;99.90
52285;DHT22;38238;53.304;6.606;2022-10-16T05:58:02;12.70;99.90
52285;DHT22;38238;53.304;6.606;2022-10-16T06:00:28;12.70;99.90
52285;DHT22;38238;53.304;6.606;2022-10-16T06:02:54;12.70;99.90
52285;DHT22;38238;53.304;6.606;2022-10-16T06:05:19;12.60;99.90
52285;DHT22;38238;53.304;6.606;2022-10-16T06:07:45;13.30;99.90
52285;DHT22;38238;53.304;6.606;2022-10-16T06:10:11;12.60;99.90
52285;DHT22;38238;53.304;6.606;2022-10-16T06:12:36;12.60;99.90
52285;DHT22;38238;53.304;6.606;2022-10-16T06:15:02;12.60;99.90
52285;DHT22;38238;53.304;6.606;2022-10-16T06:17:28;12.60;99.90
52285;DHT22;38238;53.304;6.606;2022-10-16T06:19:54;12.60;99.90
52285;DHT22;38238;53.304;6.606;2022-10-16T06:22:19;12.60;99.90
52285;DHT22;38238;53.304;6.606;2022-10-16T06:24:45;12.50;99.90
52285;DHT22;38238;53.304;6.606;2022-10-16T06:27:11;12.50;99.90
52285;DHT22;38238;53.304;6.606;2022-10-16T06:29:37;12.50;99.90
52285;DHT22;38238;53.304;6.606;2022-10-16T06:32:03;12.60;99.90
52285;DHT22;38238;53.304;6.606;2022-10-16T06:34:28;12.60;99.90
52285;DHT22;38238;53.304;6.606;2022-10-16T06:36:54;12.70;99.90
52285;DHT22;38238;53.304;6.606;2022-10-16T06:39:20;12.70;99.90
52285;DHT22;38238;53.304;6.606;2022-10-16T06:41:46;12.70;99.90
52285;DHT22;38238;53.304;6.606;2022-10-16T06:44:12;12.70;99.90
52285;DHT22;38238;53.304;6.606;2022-10-16T06:46:37;12.70;99.90
52285;DHT22;38238;53.304;6.606;2022-10-16T06:49:03;12.70;99.90
52285;DHT22;38238;53.304;6.606;2022-10-16T06:51:28;12.80;99.90
52285;DHT22;38238;53.304;6.606;2022-10-16T06:53:55;12.80;99.90
52285;DHT22;38238;53.304;6.606;2022-10-16T06:56:27;12.80;99.90
52285;DHT22;38238;53.304;6.606;2022-10-16T06:58:53;12.80;99.90
52285;DHT22;38238;53.304;6.606;2022-10-16T07:01:21;12.80;99.90
52285;DHT22;38238;53.304;6.606;2022-10-16T07:03:47;12.80;99.90
52285;DHT22;38238;53.304;6.606;2022-10-16T07:06:15;12.80;99.90
52285;DHT22;38238;53.304;6.606;2022-10-16T07:08:43;12.90;99.90
52285;DHT22;38238;53.304;6.606;2022-10-16T07:11:14;12.90;99.90
52285;DHT22;38238;53.304;6.606;2022-10-16T07:13:42;12.90;99.90
52285;DHT22;38238;53.304;6.606;2022-10-16T07:16:14;12.90;99.90
52285;DHT22;38238;53.304;6.606;2022-10-16T07:18:41;13.00;99.90
52285;DHT22;38238;53.304;6.606;2022-10-16T07:21:19;13.10;99.90
52285;DHT22;38238;53.304;6.606;2022-10-16T07:23:50;13.10;99.90
52285;DHT22;38238;53.304;6.606;2022-10-16T07:26:16;13.10;99.90
52285;DHT22;38238;53.304;6.606;2022-10-16T07:28:42;13.10;99.90
52285;DHT22;38238;53.304;6.606;2022-10-16T07:31:12;13.10;99.90
52285;DHT22;38238;53.304;6.606;2022-10-16T07:33:39;13.20;99.90
52285;DHT22;38238;53.304;6.606;2022-10-16T07:36:05;13.30;99.90
52285;DHT22;38238;53.304;6.606;2022-10-16T07:38:31;13.30;99.90
52285;DHT22;38238;53.304;6.606;2022-10-16T07:40:59;13.30;99.90
52285;DHT22;38238;53.304;6.606;2022-10-16T07:43:26;13.30;99.90
52285;DHT22;38238;53.304;6.606;2022-10-16T07:45:53;13.30;99.90
52285;DHT22;38238;53.304;6.606;2022-10-16T07:48:19;13.30;99.90
52285;DHT22;38238;53.304;6.606;2022-10-16T07:50:45;13.40;99.90
52285;DHT22;38238;53.304;6.606;2022-10-16T07:53:11;13.50;99.90
52285;DHT22;38238;53.304;6.606;2022-10-16T07:55:37;13.60;99.90
52285;DHT22;38238;53.304;6.606;2022-10-16T07:58:03;13.50;99.90
52285;DHT22;38238;53.304;6.606;2022-10-16T08:00:29;13.40;99.90
52285;DHT22;38238;53.304;6.606;2022-10-16T08:02:59;13.40;99.90
52285;DHT22;38238;53.304;6.606;2022-10-16T08:05:29;13.30;99.90
52285;DHT22;38238;53.304;6.606;2022-10-16T08:07:55;13.30;99.90
52285;DHT22;38238;53.304;6.606;2022-10-16T08:10:23;13.30;99.90
52285;DHT22;38238;53.304;6.606;2022-10-16T08:12:50;13.20;99.90
52285;DHT22;38238;53.304;6.606;2022-10-16T08:15:16;13.20;99.90
52285;DHT22;38238;53.304;6.606;2022-10-16T08:17:42;13.30;99.90
52285;DHT22;38238;53.304;6.606;2022-10-16T08:20:09;13.40;99.90
52285;DHT22;38238;53.304;6.606;2022-10-16T08:22:34;13.40;99.90
52285;DHT22;38238;53.304;6.606;2022-10-16T08:25:00;13.50;99.90
52285;DHT22;38238;53.304;6.606;2022-10-16T08:27:31;13.60;99.90
52285;DHT22;38238;53.304;6.606;2022-10-16T08:29:57;13.70;99.90
52285;DHT22;38238;53.304;6.606;2022-10-16T08:32:22;13.90;99.90
52285;DHT22;38238;53.304;6.606;2022-10-16T08:34:48;13.90;99.90
52285;DHT22;38238;53.304;6.606;2022-10-16T08:37:14;14.00;99.90
52285;DHT22;38238;53.304;6.606;2022-10-16T08:39:40;14.00;99.90
52285;DHT22;38238;53.304;6.606;2022-10-16T08:50:32;14.10;99.90
52285;DHT22;38238;53.304;6.606;2022-10-16T08:53:01;14.00;99.90
52285;DHT22;38238;53.304;6.606;2022-10-16T08:58:14;14.10;99.90
52285;DHT22;38238;53.304;6.606;2022-10-16T09:00:43;14.20;99.90
52285;DHT22;38238;53.304;6.606;2022-10-16T09:09:15;14.50;99.90
52285;DHT22;38238;53.304;6.606;2022-10-16T09:12:07;14.30;99.90
52285;DHT22;38238;53.304;6.606;2022-10-16T09:25:29;14.30;99.90
52285;DHT22;38238;53.304;6.606;2022-10-16T09:27:55;14.40;99.90
52285;DHT22;38238;53.304;6.606;2022-10-16T09:30:22;14.70;99.90
52285;DHT22;38238;53.304;6.606;2022-10-16T09:32:51;14.90;99.90
52285;DHT22;38238;53.304;6.606;2022-10-16T09:37:57;15.10;99.90
52285;DHT22;38238;53.304;6.606;2022-10-16T09:40:34;15.20;99.90
52285;DHT22;38238;53.304;6.606;2022-10-16T09:45:42;15.50;99.90
52285;DHT22;38238;53.304;6.606;2022-10-16T09:48:12;15.60;99.90
52285;DHT22;38238;53.304;6.606;2022-10-16T09:50:39;15.60;99.90
52285;DHT22;38238;53.304;6.606;2022-10-16T09:53:12;15.70;99.90
52285;DHT22;38238;53.304;6.606;2022-10-16T09:55:52;15.70;99.90
52285;DHT22;38238;53.304;6.606;2022-10-16T09:58:21;15.70;99.90
52285;DHT22;38238;53.304;6.606;2022-10-16T10:00:54;15.80;99.90
52285;DHT22;38238;53.304;6.606;2022-10-16T10:03:33;16.00;99.90
52285;DHT22;38238;53.304;6.606;2022-10-16T10:06:04;16.40;99.90
52285;DHT22;38238;53.304;6.606;2022-10-16T10:08:31;16.80;99.90
52285;DHT22;38238;53.304;6.606;2022-10-16T10:10:57;17.10;99.90
52285;DHT22;38238;53.304;6.606;2022-10-16T10:13:24;17.60;99.90
52285;DHT22;38238;53.304;6.606;2022-10-16T10:15:51;18.20;99.90
52285;DHT22;38238;53.304;6.606;2022-10-16T10:18:20;18.70;99.90
52285;DHT22;38238;53.304;6.606;2022-10-16T10:20:58;19.10;99.90
52285;DHT22;38238;53.304;6.606;2022-10-16T10:23:26;19.30;99.90
52285;DHT22;38238;53.304;6.606;2022-10-16T10:26:10;19.60;99.90
52285;DHT22;38238;53.304;6.606;2022-10-16T10:31:43;20.10;99.90
52285;DHT22;38238;53.304;6.606;2022-10-16T10:34:49;20.10;99.90
52285;DHT22;38238;53.304;6.606;2022-10-16T10:37:58;19.90;99.90
52285;DHT22;38238;53.304;6.606;2022-10-16T10:43:04;19.80;99.90
52285;DHT22;38238;53.304;6.606;2022-10-16T10:45:42;19.40;99.90
52285;DHT22;38238;53.304;6.606;2022-10-16T10:51:04;18.90;99.90
52285;DHT22;38238;53.304;6.606;2022-10-16T10:57:02;19.90;99.90
52285;DHT22;38238;53.304;6.606;2022-10-16T11:02:15;20.20;99.90
52285;DHT22;38238;53.304;6.606;2022-10-16T11:07:30;20.10;99.90
52285;DHT22;38238;53.304;6.606;2022-10-16T11:10:42;20.20;99.90
52285;DHT22;38238;53.304;6.606;2022-10-16T11:12:52;20.10;99.90
52285;DHT22;38238;53.304;6.606;2022-10-16T11:15:35;20.30;99.90
52285;DHT22;38238;53.304;6.606;2022-10-16T11:18:18;20.60;99.90
52285;DHT22;38238;53.304;6.606;2022-10-16T11:20:54;20.70;99.60
52285;DHT22;38238;53.304;6.606;2022-10-16T11:23:39;20.70;98.70
52285;DHT22;38238;53.304;6.606;2022-10-16T11:26:16;20.50;99.60
52285;DHT22;38238;53.304;6.606;2022-10-16T11:29:04;20.30;99.40
52285;DHT22;38238;53.304;6.606;2022-10-16T11:31:40;19.70;99.70
52285;DHT22;38238;53.304;6.606;2022-10-16T11:39:30;17.80;99.90
52285;DHT22;38238;53.304;6.606;2022-10-16T11:49:41;17.50;99.90
52285;DHT22;38238;53.304;6.606;2022-10-16T11:52:21;17.30;99.90
52285;DHT22;38238;53.304;6.606;2022-10-16T11:57:41;16.80;99.90
52285;DHT22;38238;53.304;6.606;2022-10-16T12:00:28;16.50;99.90
52285;DHT22;38238;53.304;6.606;2022-10-16T12:08:27;18.20;99.90
52285;DHT22;38238;53.304;6.606;2022-10-16T12:10:53;18.90;99.90
52285;DHT22;38238;53.304;6.606;2022-10-16T12:13:35;19.40;99.90
52285;DHT22;38238;53.304;6.606;2022-10-16T12:16:07;19.50;99.90
52285;DHT22;38238;53.304;6.606;2022-10-16T12:18:45;19.10;99.90
52285;DHT22;38238;53.304;6.606;2022-10-16T12:21:13;18.70;99.90
52285;DHT22;38238;53.304;6.606;2022-10-16T12:26:34;18.00;99.90
52285;DHT22;38238;53.304;6.606;2022-10-16T12:31:47;17.70;99.90
52285;DHT22;38238;53.304;6.606;2022-10-16T12:34:42;17.50;99.90
52285;DHT22;38238;53.304;6.606;2022-10-16T12:37:23;17.40;99.90
52285;DHT22;38238;53.304;6.606;2022-10-16T12:39:51;17.20;99.90
52285;DHT22;38238;53.304;6.606;2022-10-16T12:44:51;17.10;99.90
52285;DHT22;38238;53.304;6.606;2022-10-16T12:49:57;17.20;99.90
52285;DHT22;38238;53.304;6.606;2022-10-16T12:52:37;17.10;99.90
52285;DHT22;38238;53.304;6.606;2022-10-16T12:55:05;17.00;99.90
52285;DHT22;38238;53.304;6.606;2022-10-16T12:57:44;16.90;99.90
52285;DHT22;38238;53.304;6.606;2022-10-16T13:00:28;16.80;99.90
52285;DHT22;38238;53.304;6.606;2022-10-16T13:06:14;16.50;99.90
52285;DHT22;38238;53.304;6.606;2022-10-16T13:14:24;16.40;99.90
52285;DHT22;38238;53.304;6.606;2022-10-16T13:17:24;16.50;99.90
52285;DHT22;38238;53.304;6.606;2022-10-16T13:20:13;16.50;99.90
52285;DHT22;38238;53.304;6.606;2022-10-16T13:28:27;16.60;99.90
52285;DHT22;38238;53.304;6.606;2022-10-16T13:30:56;16.70;99.90
52285;DHT22;38238;53.304;6.606;2022-10-16T13:33:35;16.70;99.90
52285;DHT22;38238;53.304;6.606;2022-10-16T13:36:03;16.70;99.90
52285;DHT22;38238;53.304;6.606;2022-10-16T13:38:33;16.80;99.90
52285;DHT22;38238;53.304;6.606;2022-10-16T13:41:05;16.80;99.90
52285;DHT22;38238;53.304;6.606;2022-10-16T13:43:41;16.80;99.90
52285;DHT22;38238;53.304;6.606;2022-10-16T13:46:12;16.80;99.90
52285;DHT22;38238;53.304;6.606;2022-10-16T13:48:38;16.90;99.90
52285;DHT22;38238;53.304;6.606;2022-10-16T13:51:15;17.00;99.90
52285;DHT22;38238;53.304;6.606;2022-10-16T13:53:42;17.10;99.90
52285;DHT22;38238;53.304;6.606;2022-10-16T13:56:14;17.20;99.90
52285;DHT22;38238;53.304;6.606;2022-10-16T13:58:41;17.20;99.90
52285;DHT22;38238;53.304;6.606;2022-10-16T14:01:20;17.30;99.90
52285;DHT22;38238;53.304;6.606;2022-10-16T14:03:48;17.30;99.90
52285;DHT22;38238;53.304;6.606;2022-10-16T14:06:17;17.20;99.90
52285;DHT22;38238;53.304;6.606;2022-10-16T14:08:47;17.20;99.90
52285;DHT22;38238;53.304;6.606;2022-10-16T14:11:23;17.30;99.90
52285;DHT22;38238;53.304;6.606;2022-10-16T14:13:50;17.30;99.90
52285;DHT22;38238;53.304;6.606;2022-10-16T14:16:36;17.30;99.90
52285;DHT22;38238;53.304;6.606;2022-10-16T14:19:05;17.20;99.90
52285;DHT22;38238;53.304;6.606;2022-10-16T14:21:33;17.20;99.90
52285;DHT22;38238;53.304;6.606;2022-10-16T14:23:59;17.20;99.90
52285;DHT22;38238;53.304;6.606;2022-10-16T14:26:42;17.30;99.90
52285;DHT22;38238;53.304;6.606;2022-10-16T14:29:13;17.40;99.90
52285;DHT22;38238;53.304;6.606;2022-10-16T14:31:39;17.40;99.90
52285;DHT22;38238;53.304;6.606;2022-10-16T14:34:36;17.40;99.90
52285;DHT22;38238;53.304;6.606;2022-10-16T14:37:22;17.40;99.90
52285;DHT22;38238;53.304;6.606;2022-10-16T14:39:50;17.20;99.90
52285;DHT22;38238;53.304;6.606;2022-10-16T14:42:17;17.20;99.90
52285;DHT22;38238;53.304;6.606;2022-10-16T14:44:45;17.10;99.90
52285;DHT22;38238;53.304;6.606;2022-10-16T14:47:16;17.10;99.90
52285;DHT22;38238;53.304;6.606;2022-10-16T14:49:47;17.20;99.90
52285;DHT22;38238;53.304;6.606;2022-10-16T14:52:14;17.10;99.90
52285;DHT22;38238;53.304;6.606;2022-10-16T14:54:40;17.00;99.90
52285;DHT22;38238;53.304;6.606;2022-10-16T14:57:19;16.80;99.90
52285;DHT22;38238;53.304;6.606;2022-10-16T14:59:46;16.70;99.90
52285;DHT22;38238;53.304;6.606;2022-10-16T15:02:34;16.60;99.90
52285;DHT22;38238;53.304;6.606;2022-10-16T15:07:43;16.40;99.90
52285;DHT22;38238;53.304;6.606;2022-10-16T15:10:11;16.30;99.90
52285;DHT22;38238;53.304;6.606;2022-10-16T15:12:36;16.20;99.90
52285;DHT22;38238;53.304;6.606;2022-10-16T15:15:33;16.20;99.90
52285;DHT22;38238;53.304;6.606;2022-10-16T15:17:56;16.10;99.90
52285;DHT22;38238;53.304;6.606;2022-10-16T15:20:27;16.10;99.90
52285;DHT22;38238;53.304;6.606;2022-10-16T15:22:53;16.00;99.90
52285;DHT22;38238;53.304;6.606;2022-10-16T15:27:53;15.90;99.90
52285;DHT22;38238;53.304;6.606;2022-10-16T15:30:20;15.90;99.90
52285;DHT22;38238;53.304;6.606;2022-10-16T15:32:45;15.90;99.90
52285;DHT22;38238;53.304;6.606;2022-10-16T15:35:11;15.90;99.90
52285;DHT22;38238;53.304;6.606;2022-10-16T15:37:37;15.80;99.90
52285;DHT22;38238;53.304;6.606;2022-10-16T15:40:03;15.80;99.90
52285;DHT22;38238;53.304;6.606;2022-10-16T15:42:29;15.70;99.90
52285;DHT22;38238;53.304;6.606;2022-10-16T15:44:54;15.70;99.90
52285;DHT22;38238;53.304;6.606;2022-10-16T15:47:20;15.60;99.90
52285;DHT22;38238;53.304;6.606;2022-10-16T15:49:46;15.60;99.90
52285;DHT22;38238;53.304;6.606;2022-10-16T15:52:11;15.50;99.90
52285;DHT22;38238;53.304;6.606;2022-10-16T15:54:37;15.50;99.90
52285;DHT22;38238;53.304;6.606;2022-10-16T15:57:03;15.40;99.90
52285;DHT22;38238;53.304;6.606;2022-10-16T15:59:28;15.40;99.90
52285;DHT22;38238;53.304;6.606;2022-10-16T16:01:54;15.30;99.90
52285;DHT22;38238;53.304;6.606;2022-10-16T16:04:20;15.30;99.90
52285;DHT22;38238;53.304;6.606;2022-10-16T16:06:45;15.20;99.90
52285;DHT22;38238;53.304;6.606;2022-10-16T16:09:12;15.10;99.90
52285;DHT22;38238;53.304;6.606;2022-10-16T16:11:39;15.10;99.90
52285;DHT22;38238;53.304;6.606;2022-10-16T16:14:13;15.20;99.90
52285;DHT22;38238;53.304;6.606;2022-10-16T16:16:39;15.10;99.90
52285;DHT22;38238;53.304;6.606;2022-10-16T16:19:05;15.00;99.90
52285;DHT22;38238;53.304;6.606;2022-10-16T16:21:32;15.00;99.90
52285;DHT22;38238;53.304;6.606;2022-10-16T16:23:58;14.90;99.90
52285;DHT22;38238;53.304;6.606;2022-10-16T16:26:28;14.80;99.90
52285;DHT22;38238;53.304;6.606;2022-10-16T16:28:59;14.80;99.90
52285;DHT22;38238;53.304;6.606;2022-10-16T16:31:26;14.80;99.90
52285;DHT22;38238;53.304;6.606;2022-10-16T16:33:53;14.70;99.90
52285;DHT22;38238;53.304;6.606;2022-10-16T16:36:19;14.70;99.90
52285;DHT22;38238;53.304;6.606;2022-10-16T16:38:45;14.60;99.90
52285;DHT22;38238;53.304;6.606;2022-10-16T16:41:13;14.60;99.90
52285;DHT22;38238;53.304;6.606;2022-10-16T16:43:39;14.50;99.90
52285;DHT22;38238;53.304;6.606;2022-10-16T16:46:04;14.40;99.90
52285;DHT22;38238;53.304;6.606;2022-10-16T16:48:31;14.30;99.90
52285;DHT22;38238;53.304;6.606;2022-10-16T16:51:02;14.30;99.90
52285;DHT22;38238;53.304;6.606;2022-10-16T16:53:27;14.30;99.90
52285;DHT22;38238;53.304;6.606;2022-10-16T16:55:53;14.30;99.90
52285;DHT22;38238;53.304;6.606;2022-10-16T16:58:19;14.20;99.90
52285;DHT22;38238;53.304;6.606;2022-10-16T17:00:45;14.10;99.90
52285;DHT22;38238;53.304;6.606;2022-10-16T17:03:11;14.10;99.90
52285;DHT22;38238;53.304;6.606;2022-10-16T17:05:37;14.10;99.90
52285;DHT22;38238;53.304;6.606;2022-10-16T17:08:05;14.00;99.90
52285;DHT22;38238;53.304;6.606;2022-10-16T17:10:31;13.90;99.90
52285;DHT22;38238;53.304;6.606;2022-10-16T17:12:57;13.80;99.90
52285;DHT22;38238;53.304;6.606;2022-10-16T17:15:23;13.80;99.90
52285;DHT22;38238;53.304;6.606;2022-10-16T17:17:48;13.80;99.90
52285;DHT22;38238;53.304;6.606;2022-10-16T17:20:15;13.80;99.90
52285;DHT22;38238;53.304;6.606;2022-10-16T17:22:40;13.80;99.90
52285;DHT22;38238;53.304;6.606;2022-10-16T17:25:06;13.70;99.90
52285;DHT22;38238;53.304;6.606;2022-10-16T17:27:33;13.70;99.90
52285;DHT22;38238;53.304;6.606;2022-10-16T17:30:08;13.70;99.90
52285;DHT22;38238;53.304;6.606;2022-10-16T17:32:34;13.60;99.90
52285;DHT22;38238;53.304;6.606;2022-10-16T17:35:05;13.60;99.90
52285;DHT22;38238;53.304;6.606;2022-10-16T17:37:31;13.60;99.90
52285;DHT22;38238;53.304;6.606;2022-10-16T17:39:56;13.50;99.90
52285;DHT22;38238;53.304;6.606;2022-10-16T17:42:22;13.50;99.90
52285;DHT22;38238;53.304;6.606;2022-10-16T17:44:48;13.50;99.90